Time;durP1;ratioP1;P1;durP2;ratioP2;P2;SDS_P1;SDS_P2;PMS_P1;PMS_P2;Temp;Humidity;BMP_temperature;BMP_pressure;BME280_temperature;BME280_humidity;BME280_pressure;Samples;Min_cycle;Max_cycle;Signal;HPM_P1;HPM_P2
2022/01/23 00:00:04;;;;;;;25.36;12.14;;;;;;;;;;361978;145;857370;-54
2022/01/23 00:00:54;;;;;;;27.56;13.32;;;;;;;;;;360898;146;859941;-55
2022/01/23 00:02:07;;;;;;;30.59;14.39;;;;;;;;;;366338;145;859442;-55
2022/01/23 00:03:05;;;;;;;26.06;13.41;;;;;;;;;;360938;146;866636;-55
2022/01/23 00:04:05;;;;;;;31.63;14.09;;;;;;;;;;361703;144;857878;-55
2022/01/23 00:05:08;;;;;;;28.24;13.73;;;;;;;;;;362842;145;857380;-54
2022/01/23 00:06:10;;;;;;;28.11;13.04;;;;;;;;;;365250;144;865096;-56
2022/01/23 00:07:14;;;;;;;24.61;12.72;;;;;;;;;;365067;145;859770;-55
2022/01/23 00:08:18;;;;;;;26.14;12.99;;;;;;;;;;365388;144;864856;-55
2022/01/23 00:09:18;;;;;;;34.96;16.71;;;;;;;;;;364469;144;859295;-54
2022/01/23 00:10:21;;;;;;;40.93;18.18;;;;;;;;;;363248;144;866049;-54
2022/01/23 00:11:26;;;;;;;36.95;16.98;;;;;;;;;;365139;145;857420;-53
2022/01/23 00:12:28;;;;;;;29.73;14.34;;;;;;;;;;361860;145;864985;-53
2022/01/23 00:17:12;;;;;;;32.19;14.96;;;;;;;;;;363505;146;858739;-54
2022/01/23 00:18:15;;;;;;;48.89;19.29;;;;;;;;;;363948;145;858587;-54
2022/01/23 00:19:16;;;;;;;39.56;16.60;;;;;;;;;;362386;147;865507;-53
2022/01/23 00:20:19;;;;;;;39.20;16.94;;;;;;;;;;363048;146;856478;-53
2022/01/23 00:21:21;;;;;;;41.81;17.13;;;;;;;;;;362816;144;857389;-54
2022/01/23 00:22:27;;;;;;;30.88;14.93;;;;;;;;;;366494;145;866546;-54
2022/01/23 00:30:19;;;;;;;23.42;11.66;;;;;;;;;;362630;146;867735;-55
2022/01/23 00:30:20;;;;;;;23.85;11.35;;;;;;;;;;364644;145;857131;-54
2022/01/23 00:31:00;;;;;;;22.91;10.14;;;;;;;;;;364770;145;865392;-54
2022/01/23 00:32:01;;;;;;;22.93;11.01;;;;;;;;;;364473;145;858630;-53
2022/01/23 00:33:03;;;;;;;20.76;11.33;;;;;;;;;;363601;145;859208;-54
2022/01/23 00:34:06;;;;;;;25.01;12.57;;;;;;;;;;363942;145;864729;-54
2022/01/23 00:35:07;;;;;;;20.74;11.17;;;;;;;;;;363562;145;857420;-54
2022/01/23 00:36:12;;;;;;;21.17;11.90;;;;;;;;;;362406;145;857735;-54
2022/01/23 00:37:14;;;;;;;23.21;11.18;;;;;;;;;;362787;146;857407;-54
2022/01/23 00:38:16;;;;;;;23.55;10.81;;;;;;;;;;364036;145;857260;-54
2022/01/23 00:39:18;;;;;;;21.14;11.12;;;;;;;;;;363967;145;857353;-54
2022/01/23 00:40:21;;;;;;;21.50;11.74;;;;;;;;;;360525;145;857484;-54
2022/01/23 00:41:23;;;;;;;22.53;11.59;;;;;;;;;;365628;145;858932;-54
2022/01/23 00:42:27;;;;;;;22.98;11.11;;;;;;;;;;363301;145;865364;-53
2022/01/23 00:43:33;;;;;;;24.20;10.34;;;;;;;;;;364156;144;864849;-54
2022/01/23 00:44:36;;;;;;;20.48;10.42;;;;;;;;;;364011;145;858958;-54
2022/01/23 00:45:44;;;;;;;20.04;10.68;;;;;;;;;;362709;144;858532;-54
2022/01/23 00:46:49;;;;;;;21.91;11.36;;;;;;;;;;365735;145;864910;-54
2022/01/23 00:47:45;;;;;;;26.97;11.96;;;;;;;;;;364262;146;866562;-54
2022/01/23 00:49:58;;;;;;;42.28;18.56;;;;;;;;;;364184;145;865058;-53
2022/01/23 00:50:59;;;;;;;45.24;19.51;;;;;;;;;;363563;145;857834;-53
2022/01/23 00:52:01;;;;;;;38.61;17.35;;;;;;;;;;363617;145;865121;-54
2022/01/23 00:53:03;;;;;;;42.07;18.26;;;;;;;;;;363998;145;857232;-53
2022/01/23 00:54:05;;;;;;;39.94;17.31;;;;;;;;;;361993;145;859489;-54
2022/01/23 00:55:07;;;;;;;40.15;16.88;;;;;;;;;;367021;145;857097;-54
2022/01/23 00:56:09;;;;;;;36.43;15.29;;;;;;;;;;362845;145;864575;-53
2022/01/23 00:57:11;;;;;;;35.71;15.51;;;;;;;;;;365011;144;865870;-54
2022/01/23 00:58:13;;;;;;;28.37;13.36;;;;;;;;;;363151;144;867444;-53
2022/01/23 00:59:15;;;;;;;25.37;13.41;;;;;;;;;;365050;145;865051;-56
2022/01/23 01:00:18;;;;;;;27.76;12.75;;;;;;;;;;364718;145;857359;-54
2022/01/23 01:01:19;;;;;;;25.38;12.72;;;;;;;;;;365761;146;864253;-54
2022/01/23 01:02:21;;;;;;;27.24;11.68;;;;;;;;;;363819;145;859604;-54
2022/01/23 01:03:24;;;;;;;23.77;11.38;;;;;;;;;;362974;144;864637;-54
2022/01/23 01:04:25;;;;;;;22.43;11.24;;;;;;;;;;366657;144;858904;-54
2022/01/23 01:05:27;;;;;;;23.51;11.45;;;;;;;;;;366655;144;864715;-54
2022/01/23 01:06:29;;;;;;;19.57;10.52;;;;;;;;;;365952;144;864789;-54
2022/01/23 01:07:31;;;;;;;20.79;10.18;;;;;;;;;;367350;144;857125;-54
2022/01/23 01:08:33;;;;;;;19.69;9.78;;;;;;;;;;365919;144;866429;-54
2022/01/23 01:09:34;;;;;;;17.52;9.74;;;;;;;;;;366794;144;866168;-54
2022/01/23 01:10:54;;;;;;;18.64;9.44;;;;;;;;;;367669;144;858816;-54
2022/01/23 01:12:04;;;;;;;15.97;8.93;;;;;;;;;;365486;144;865031;-55
2022/01/23 01:13:02;;;;;;;16.59;8.03;;;;;;;;;;365298;144;857816;-54
2022/01/23 01:17:35;;;;;;;15.62;8.53;;;;;;;;;;366651;144;856932;-54
2022/01/23 01:30:55;;;;;;;15.22;8.26;;;;;;;;;;367493;144;857198;-54
2022/01/23 01:31:47;;;;;;;15.48;7.54;;;;;;;;;;364086;144;860709;-54
2022/01/23 01:34:23;;;;;;;17.44;7.91;;;;;;;;;;366712;144;865417;-54
2022/01/23 01:35:26;;;;;;;14.26;7.41;;;;;;;;;;365775;144;857368;-54
2022/01/23 01:36:28;;;;;;;14.06;7.98;;;;;;;;;;366894;144;857455;-54
2022/01/23 01:37:25;;;;;;;13.31;7.67;;;;;;;;;;365498;144;858803;-53
2022/01/23 01:38:27;;;;;;;15.68;7.99;;;;;;;;;;367352;144;859090;-54
2022/01/23 01:39:28;;;;;;;14.76;7.48;;;;;;;;;;366573;144;865251;-53
2022/01/23 01:40:30;;;;;;;14.48;7.61;;;;;;;;;;365795;144;858777;-54
2022/01/23 01:41:34;;;;;;;16.49;7.89;;;;;;;;;;367065;144;861733;-53
2022/01/23 01:42:35;;;;;;;15.08;7.43;;;;;;;;;;365143;144;857183;-55
2022/01/23 01:43:37;;;;;;;13.74;7.34;;;;;;;;;;366327;144;856395;-55
2022/01/23 01:44:38;;;;;;;13.21;7.76;;;;;;;;;;367485;144;857201;-55
2022/01/23 01:45:42;;;;;;;17.14;8.39;;;;;;;;;;365798;144;866189;-55
2022/01/23 01:46:44;;;;;;;14.30;8.02;;;;;;;;;;367441;144;862854;-55
2022/01/23 01:47:49;;;;;;;13.35;7.47;;;;;;;;;;368769;144;864844;-55
2022/01/23 01:48:51;;;;;;;15.51;7.97;;;;;;;;;;365990;144;857163;-55
2022/01/23 01:49:52;;;;;;;15.44;9.00;;;;;;;;;;367449;144;859183;-55
2022/01/23 01:50:55;;;;;;;20.65;9.86;;;;;;;;;;366280;144;866798;-54
2022/01/23 01:51:57;;;;;;;16.89;8.84;;;;;;;;;;366147;144;866814;-55
2022/01/23 01:52:59;;;;;;;16.77;9.00;;;;;;;;;;366554;144;857464;-54
2022/01/23 01:54:10;;;;;;;20.31;11.06;;;;;;;;;;366164;144;858176;-54
2022/01/23 01:55:10;;;;;;;22.34;10.83;;;;;;;;;;365880;144;864685;-54
2022/01/23 01:56:11;;;;;;;19.58;10.41;;;;;;;;;;367713;144;860143;-54
2022/01/23 01:57:14;;;;;;;16.05;9.43;;;;;;;;;;366033;144;857363;-54
2022/01/23 02:00:54;;;;;;;16.53;8.39;;;;;;;;;;367105;144;857045;-55
2022/01/23 02:09:11;;;;;;;19.62;10.45;;;;;;;;;;364262;144;857204;-55
2022/01/23 02:22:43;;;;;;;12.55;7.05;;;;;;;-3.79;72.91;99727.84;371585;142;883051;-56
2022/01/23 02:25:17;;;;;;;14.38;6.38;;;;;;;;;;363407;147;858920;-56
2022/01/23 02:51:11;;;;;;;18.31;8.93;;;;;;;;;;358963;147;864940;-54
2022/01/23 02:55:42;;;;;;;19.28;9.66;;;;;;;;;;360581;147;857909;-54
2022/01/23 02:56:48;;;;;;;18.11;9.44;;;;;;;;;;358859;147;857349;-54
2022/01/23 02:59:00;;;;;;;13.40;7.64;;;;;;;;;;356528;148;859893;-53
2022/01/23 02:59:58;;;;;;;14.68;7.93;;;;;;;;;;359549;148;864825;-53
2022/01/23 03:01:17;;;;;;;15.30;8.15;;;;;;;;;;361248;147;859567;-54
2022/01/23 03:03:21;;;;;;;13.43;7.27;;;;;;;;;;357222;147;857344;-54
2022/01/23 03:04:21;;;;;;;16.36;8.01;;;;;;;;;;355788;147;857220;-54
2022/01/23 03:05:35;;;;;;;13.32;7.78;;;;;;;;;;358471;147;858847;-54
2022/01/23 03:06:56;;;;;;;12.34;7.21;;;;;;;;;;358108;148;857597;-56
2022/01/23 03:10:13;;;;;;;14.07;6.92;;;;;;;;;;358025;148;858694;-55
2022/01/23 03:11:23;;;;;;;16.57;7.31;;;;;;;;;;358370;147;857565;-53
2022/01/23 03:13:05;;;;;;;12.74;6.69;;;;;;;;;;356124;148;857872;-55
2022/01/23 03:15:59;;;;;;;10.69;6.29;;;;;;;;;;356630;148;859387;-55
2022/01/23 03:27:25;;;;;;;11.88;6.62;;;;;;;;;;357271;148;857354;-54
2022/01/23 03:28:19;;;;;;;12.36;6.76;;;;;;;;;;357209;147;866253;-54
2022/01/23 03:29:22;;;;;;;12.42;6.89;;;;;;;;;;355388;148;857486;-54
2022/01/23 03:30:26;;;;;;;11.22;6.83;;;;;;;;;;358915;147;865120;-54
2022/01/23 03:31:29;;;;;;;13.59;7.04;;;;;;;;;;356783;147;857267;-54
2022/01/23 03:32:42;;;;;;;15.68;7.63;;;;;;;;;;360587;147;858915;-54
2022/01/23 03:33:32;;;;;;;11.75;6.80;;;;;;;;;;357400;147;865337;-54
2022/01/23 03:34:34;;;;;;;14.87;7.21;;;;;;;;;;355379;147;861312;-54
2022/01/23 03:35:35;;;;;;;10.20;6.36;;;;;;;;;;358436;148;857136;-54
2022/01/23 03:36:38;;;;;;;12.34;6.67;;;;;;;;;;357896;148;865107;-54
2022/01/23 03:37:39;;;;;;;11.76;7.05;;;;;;;;;;360036;147;864993;-54
2022/01/23 03:38:41;;;;;;;15.27;7.24;;;;;;;;;;355293;147;857417;-55
2022/01/23 03:39:43;;;;;;;12.85;7.07;;;;;;;;;;358558;148;861789;-54
2022/01/23 03:40:46;;;;;;;14.56;7.81;;;;;;;;;;358700;148;857224;-54
2022/01/23 03:41:48;;;;;;;12.81;7.02;;;;;;;;;;358786;148;857875;-54
2022/01/23 03:42:56;;;;;;;14.64;7.81;;;;;;;;;;359161;149;864933;-55
2022/01/23 03:43:53;;;;;;;14.87;7.65;;;;;;;;;;356955;147;861360;-56
2022/01/23 03:47:41;;;;;;;14.61;7.42;;;;;;;;;;359143;147;858262;-54
2022/01/23 03:49:44;;;;;;;13.91;7.49;;;;;;;;;;360374;147;857106;-55
2022/01/23 03:50:46;;;;;;;13.61;7.91;;;;;;;;;;359916;147;865600;-54
2022/01/23 03:51:48;;;;;;;12.58;7.25;;;;;;;;;;358384;148;858725;-55
2022/01/23 03:52:49;;;;;;;12.64;7.65;;;;;;;;;;358589;147;857718;-54
2022/01/23 03:53:51;;;;;;;13.76;7.63;;;;;;;;;;358032;147;865022;-56
2022/01/23 03:54:52;;;;;;;13.64;7.32;;;;;;;;;;359914;147;859749;-54
2022/01/23 03:55:54;;;;;;;13.65;7.41;;;;;;;;;;359293;148;860662;-53
2022/01/23 03:56:57;;;;;;;12.98;7.44;;;;;;;;;;358223;148;858710;-54
2022/01/23 03:57:58;;;;;;;13.94;7.03;;;;;;;;;;357382;147;865924;-53
2022/01/23 03:59:00;;;;;;;14.49;7.52;;;;;;;;;;358574;148;857213;-56
2022/01/23 04:00:02;;;;;;;17.26;8.11;;;;;;;;;;359919;148;865411;-56
2022/01/23 04:01:04;;;;;;;12.00;7.27;;;;;;;;;;359817;147;864793;-56
2022/01/23 04:02:06;;;;;;;14.03;7.48;;;;;;;;;;358428;148;858989;-55
2022/01/23 04:03:08;;;;;;;14.79;7.54;;;;;;;;;;359771;147;866891;-55
2022/01/23 04:04:25;;;;;;;11.00;7.36;;;;;;;;;;361359;147;857179;-54
2022/01/23 04:05:13;;;;;;;14.84;7.25;;;;;;;;;;356250;148;868464;-55
2022/01/23 04:06:15;;;;;;;9.77;6.01;;;;;;;;;;359157;147;857292;-53
2022/01/23 04:07:22;;;;;;;12.67;7.40;;;;;;;;;;361173;147;857422;-54
2022/01/23 04:08:25;;;;;;;14.01;7.70;;;;;;;;;;357659;147;866153;-54
2022/01/23 04:09:27;;;;;;;12.56;6.31;;;;;;;;;;358304;147;857638;-54
2022/01/23 04:10:29;;;;;;;11.17;7.25;;;;;;;;;;359458;147;860163;-55
2022/01/23 04:11:30;;;;;;;14.01;7.78;;;;;;;;;;356839;148;857231;-55
2022/01/23 04:13:45;;;;;;;11.04;7.06;;;;;;;;;;359183;148;858682;-55
2022/01/23 04:14:47;;;;;;;15.08;8.28;;;;;;;;;;357320;147;857344;-55
2022/01/23 04:16:04;;;;;;;12.86;7.91;;;;;;;;;;358486;147;859124;-55
2022/01/23 04:19:37;;;;;;;12.94;7.97;;;;;;;;;;357914;147;858280;-55
2022/01/23 04:20:43;;;;;;;13.63;7.76;;;;;;;;;;357379;147;859419;-55
2022/01/23 04:33:44;;;;;;;15.68;7.70;;;;;;;;;;340964;154;859158;-56
2022/01/23 04:45:16;;;;;;;13.61;7.06;;;;;;;;;;348445;151;863355;-56
2022/01/23 04:49:05;;;;;;;13.99;6.62;;;;;;;;;;318162;165;858025;-57
2022/01/23 05:00:22;;;;;;;15.48;7.13;;;;;;;;;;354618;148;856542;-57
2022/01/23 05:05:01;;;;;;;14.27;7.60;;;;;;;;;;351537;148;864925;-58
2022/01/23 05:06:06;;;;;;;15.39;9.10;;;;;;;;;;355669;148;857927;-55
2022/01/23 05:07:10;;;;;;;16.38;8.52;;;;;;;;;;355705;149;859899;-58
2022/01/23 05:08:17;;;;;;;17.17;8.29;;;;;;;;;;355045;148;857456;-57
2022/01/23 05:09:14;;;;;;;14.88;7.15;;;;;;;;;;354866;148;858841;-58
2022/01/23 05:10:17;;;;;;;14.36;7.91;;;;;;;;;;354952;149;858113;-58
2022/01/23 05:11:19;;;;;;;16.17;9.30;;;;;;;;;;354979;148;865190;-59
2022/01/23 05:12:27;;;;;;;14.87;8.17;;;;;;;;;;355941;149;859122;-59
2022/01/23 05:13:27;;;;;;;16.22;9.35;;;;;;;;;;355365;150;865408;-58
2022/01/23 05:14:36;;;;;;;14.19;8.14;;;;;;;;;;357737;148;859338;-59
2022/01/23 05:15:34;;;;;;;17.96;8.87;;;;;;;;;;354521;149;857343;-60
2022/01/23 05:16:36;;;;;;;19.36;9.58;;;;;;;;;;354404;148;865873;-58
2022/01/23 05:17:37;;;;;;;16.59;8.02;;;;;;;;;;352923;148;859903;-59
2022/01/23 05:18:39;;;;;;;11.20;6.69;;;;;;;;;;355562;148;865579;-60
2022/01/23 05:19:41;;;;;;;15.26;8.53;;;;;;;;;;355708;150;866931;-61
2022/01/23 05:20:44;;;;;;;16.70;8.65;;;;;;;;;;356179;151;865245;-60
2022/01/23 05:22:04;;;;;;;15.29;7.82;;;;;;;;;;355797;148;859347;-60
2022/01/23 05:22:58;;;;;;;17.45;8.21;;;;;;;;;;352627;149;865755;-61
2022/01/23 05:23:56;;;;;;;14.69;7.82;;;;;;;;;;356335;148;858196;-60
2022/01/23 05:25:07;;;;;;;16.20;7.67;;;;;;;;;;356884;148;857740;-60
2022/01/23 05:26:02;;;;;;;14.04;8.31;;;;;;;;;;348594;151;857349;-58
2022/01/23 05:27:05;;;;;;;14.03;8.39;;;;;;;;;;341620;155;865658;-60
2022/01/23 05:28:07;;;;;;;12.37;6.29;;;;;;;;;;343277;154;859161;-60
2022/01/23 05:29:09;;;;;;;17.51;8.37;;;;;;;;;;349799;151;859238;-60
2022/01/23 05:30:11;;;;;;;13.31;7.05;;;;;;;;;;344267;154;858259;-60
2022/01/23 05:31:13;;;;;;;15.24;8.69;;;;;;;;;;342119;155;859075;-60
2022/01/23 05:32:15;;;;;;;17.74;9.49;;;;;;;;;;349784;151;865222;-61
2022/01/23 05:33:16;;;;;;;16.87;8.75;;;;;;;;;;343312;154;860269;-60
2022/01/23 05:34:20;;;;;;;15.92;9.06;;;;;;;;;;342596;154;856429;-60
2022/01/23 05:35:23;;;;;;;14.13;8.51;;;;;;;;;;341158;154;866934;-61
2022/01/23 05:36:25;;;;;;;15.59;7.76;;;;;;;;;;342728;155;857224;-62
2022/01/23 05:37:26;;;;;;;10.48;7.09;;;;;;;;;;343027;154;865057;-62
2022/01/23 05:38:28;;;;;;;19.24;9.41;;;;;;;;;;342736;156;866792;-61
2022/01/23 05:39:32;;;;;;;17.86;10.03;;;;;;;;;;347749;153;857563;-62
2022/01/23 05:40:33;;;;;;;20.72;10.65;;;;;;;;;;340054;154;864193;-60
2022/01/23 05:41:35;;;;;;;16.34;8.83;;;;;;;;;;347258;151;866427;-60
2022/01/23 05:42:37;;;;;;;15.78;8.21;;;;;;;;;;347677;151;857264;-58
2022/01/23 05:43:38;;;;;;;17.27;9.37;;;;;;;;;;348247;152;866920;-56
2022/01/23 05:44:40;;;;;;;15.20;8.14;;;;;;;;;;346966;151;866038;-58
2022/01/23 05:45:42;;;;;;;13.96;8.29;;;;;;;;;;348459;151;865426;-56
2022/01/23 05:46:44;;;;;;;19.71;10.72;;;;;;;;;;343124;154;858239;-56
2022/01/23 05:47:45;;;;;;;21.22;11.99;;;;;;;;;;343257;154;860786;-59
2022/01/23 05:48:47;;;;;;;15.79;10.26;;;;;;;;;;340837;157;864877;-56
2022/01/23 05:49:49;;;;;;;17.05;8.15;;;;;;;;;;340505;154;865157;-56
2022/01/23 05:50:50;;;;;;;24.06;10.92;;;;;;;;;;340667;154;865115;-57
2022/01/23 05:51:52;;;;;;;16.26;8.84;;;;;;;;;;337360;155;864963;-57
2022/01/23 05:52:53;;;;;;;20.85;10.01;;;;;;;;;;340680;155;865000;-57
2022/01/23 05:53:55;;;;;;;19.11;8.31;;;;;;;;;;344957;153;860293;-56
2022/01/23 05:54:57;;;;;;;22.26;11.57;;;;;;;;;;340995;155;866798;-56
2022/01/23 05:55:59;;;;;;;17.59;10.23;;;;;;;;;;340299;155;860421;-56
2022/01/23 05:57:00;;;;;;;19.07;10.99;;;;;;;;;;346219;152;857444;-57
2022/01/23 05:58:02;;;;;;;14.66;7.59;;;;;;;;;;345708;152;866799;-56
2022/01/23 05:59:03;;;;;;;17.59;9.18;;;;;;;;;;345185;152;865667;-59
2022/01/23 06:00:06;;;;;;;17.64;8.84;;;;;;;;;;344515;152;865713;-59
2022/01/23 06:01:07;;;;;;;17.50;9.49;;;;;;;;;;345369;152;857369;-58
2022/01/23 06:02:09;;;;;;;15.61;9.02;;;;;;;;;;347762;152;858674;-59
2022/01/23 06:03:11;;;;;;;14.35;7.47;;;;;;;;;;344353;153;865662;-57
2022/01/23 06:04:13;;;;;;;17.00;8.87;;;;;;;;;;346835;152;859400;-56
2022/01/23 06:05:14;;;;;;;19.65;10.15;;;;;;;;;;341521;155;865276;-58
2022/01/23 06:06:17;;;;;;;16.54;9.31;;;;;;;;;;340408;155;858270;-59
2022/01/23 06:07:19;;;;;;;18.37;9.11;;;;;;;;;;341445;154;857493;-59
2022/01/23 06:08:22;;;;;;;19.07;9.69;;;;;;;;;;348691;152;866412;-58
2022/01/23 06:09:24;;;;;;;19.05;9.80;;;;;;;;;;348872;153;863273;-57
2022/01/23 06:10:28;;;;;;;15.23;8.80;;;;;;;;;;341287;154;857253;-57
2022/01/23 06:11:29;;;;;;;16.24;9.57;;;;;;;;;;340983;154;856381;-57
2022/01/23 06:12:31;;;;;;;17.71;10.03;;;;;;;;;;348275;152;857400;-57
2022/01/23 06:13:33;;;;;;;19.77;10.85;;;;;;;;;;353578;151;865890;-58
2022/01/23 06:14:34;;;;;;;14.81;8.95;;;;;;;;;;349575;151;868232;-56
2022/01/23 06:15:36;;;;;;;13.04;7.63;;;;;;;;;;342125;154;858787;-57
2022/01/23 06:16:38;;;;;;;18.42;9.20;;;;;;;;;;348471;153;865307;-56
2022/01/23 06:17:40;;;;;;;14.99;8.61;;;;;;;;;;342489;154;857418;-57
2022/01/23 06:18:43;;;;;;;17.90;9.48;;;;;;;;;;345764;154;857297;-57
2022/01/23 06:19:45;;;;;;;17.04;9.61;;;;;;;;;;346457;154;866864;-57
2022/01/23 06:20:46;;;;;;;15.52;8.59;;;;;;;;;;346004;152;856725;-57
2022/01/23 06:21:48;;;;;;;17.64;8.82;;;;;;;;;;346588;151;867110;-56
2022/01/23 06:22:49;;;;;;;16.92;8.77;;;;;;;;;;347088;153;866418;-57
2022/01/23 06:24:01;;;;;;;19.07;9.98;;;;;;;;;;349232;151;865751;-56
2022/01/23 06:24:55;;;;;;;19.31;10.31;;;;;;;-6.47;0.00;112913.39;350282;152;866213;-56
2022/01/23 06:25:56;;;;;;;16.73;9.99;;;;;;;;;;357868;148;857304;-60
2022/01/23 06:26:59;;;;;;;19.39;9.67;;;;;;;;;;358342;148;859069;-58
2022/01/23 06:28:02;;;;;;;12.79;7.91;;;;;;;;;;358649;148;859816;-57
2022/01/23 06:29:04;;;;;;;18.47;9.72;;;;;;;;;;358158;148;859298;-60
2022/01/23 06:30:06;;;;;;;20.89;9.23;;;;;;;;;;357054;147;857289;-59
2022/01/23 06:31:08;;;;;;;14.59;8.39;;;;;;;;;;357754;149;857981;-59
2022/01/23 06:32:10;;;;;;;14.20;6.73;;;;;;;;;;357696;147;857819;-57
2022/01/23 06:33:11;;;;;;;11.76;6.99;;;;;;;;;;357897;148;865052;-56
2022/01/23 06:34:13;;;;;;;19.62;10.34;;;;;;;;;;359653;147;865210;-56
2022/01/23 06:35:15;;;;;;;15.77;8.96;;;;;;;;;;358342;147;861464;-58
2022/01/23 06:36:17;;;;;;;17.32;10.03;;;;;;;;;;358862;147;857414;-57
2022/01/23 06:37:19;;;;;;;18.62;10.41;;;;;;;;;;358846;147;857433;-56
2022/01/23 06:38:20;;;;;;;19.39;10.44;;;;;;;;;;358589;148;864795;-56
2022/01/23 06:39:22;;;;;;;19.39;11.12;;;;;;;;;;357731;148;864213;-56
2022/01/23 06:40:24;;;;;;;19.62;10.33;;;;;;;;;;358446;147;864725;-57
2022/01/23 06:41:26;;;;;;;17.10;10.13;;;;;;;;;;354152;148;857319;-57
2022/01/23 06:42:28;;;;;;;17.55;9.29;;;;;;;;;;357793;148;859184;-57
2022/01/23 06:43:29;;;;;;;16.49;9.77;;;;;;;;;;356980;147;859525;-58
2022/01/23 06:44:31;;;;;;;17.64;10.69;;;;;;;;;;357215;147;865197;-59
2022/01/23 06:45:33;;;;;;;17.01;9.19;;;;;;;;;;357229;148;865415;-57
2022/01/23 06:46:34;;;;;;;18.36;10.51;;;;;;;;;;358487;147;865002;-58
2022/01/23 06:47:36;;;;;;;21.83;10.76;;;;;;;;;;356367;147;865030;-58
2022/01/23 06:48:37;;;;;;;18.56;9.76;;;;;;;;;;358832;149;862098;-60
2022/01/23 06:49:39;;;;;;;17.91;9.97;;;;;;;;;;358498;147;861969;-56
2022/01/23 06:50:41;;;;;;;17.88;9.95;;;;;;;;;;357100;148;867317;-60
2022/01/23 06:51:42;;;;;;;22.60;12.39;;;;;;;;;;355474;148;857398;-59
2022/01/23 06:52:44;;;;;;;20.04;9.83;;;;;;;;;;357344;147;866432;-57
2022/01/23 06:53:46;;;;;;;19.91;10.81;;;;;;;;;;358864;148;857395;-59
2022/01/23 06:54:47;;;;;;;17.81;7.27;;;;;;;;;;358367;148;865485;-58
2022/01/23 06:55:49;;;;;;;13.50;7.41;;;;;;;;;;358545;147;865600;-55
2022/01/23 06:56:51;;;;;;;21.71;10.73;;;;;;;;;;358478;147;859107;-57
2022/01/23 06:57:53;;;;;;;20.64;11.11;;;;;;;;;;356054;148;858701;-58
2022/01/23 06:58:54;;;;;;;21.58;10.91;;;;;;;;;;360247;147;864849;-57
2022/01/23 06:59:56;;;;;;;17.98;9.96;;;;;;;;;;359869;147;864796;-58
2022/01/23 07:00:58;;;;;;;18.22;10.55;;;;;;;;;;358822;147;865157;-56
2022/01/23 07:01:59;;;;;;;18.13;9.74;;;;;;;;;;356424;148;859678;-58
2022/01/23 07:03:01;;;;;;;17.21;9.38;;;;;;;;;;359934;147;865157;-58
2022/01/23 07:04:03;;;;;;;18.83;9.86;;;;;;;;;;357544;149;857287;-57
2022/01/23 07:05:04;;;;;;;19.93;9.48;;;;;;;;;;359100;147;865048;-57
2022/01/23 07:06:06;;;;;;;22.01;10.97;;;;;;;;;;358810;148;866777;-58
2022/01/23 07:07:08;;;;;;;14.96;8.85;;;;;;;;;;358663;148;859325;-57
2022/01/23 07:08:09;;;;;;;22.55;10.47;;;;;;;;;;358599;148;857325;-59
2022/01/23 07:09:11;;;;;;;16.29;9.89;;;;;;;;;;359328;147;864908;-58
2022/01/23 07:10:14;;;;;;;12.89;7.36;;;;;;;;;;356566;147;864051;-57
2022/01/23 07:11:15;;;;;;;20.74;11.15;;;;;;;;;;357137;147;857870;-57
2022/01/23 07:12:17;;;;;;;17.80;10.38;;;;;;;;;;351704;151;865082;-58
2022/01/23 07:13:19;;;;;;;20.74;10.81;;;;;;;;;;359365;147;865123;-57
2022/01/23 07:14:20;;;;;;;17.49;9.88;;;;;;;;;;358878;148;864083;-57
2022/01/23 07:15:22;;;;;;;22.91;10.79;;;;;;;;;;358359;147;865581;-57
2022/01/23 07:16:24;;;;;;;18.55;9.89;;;;;;;;;;358662;147;865836;-56
2022/01/23 07:17:26;;;;;;;20.64;11.01;;;;;;;;;;357858;149;857672;-55
2022/01/23 07:18:27;;;;;;;21.41;11.29;;;;;;;;;;359789;147;865263;-59
2022/01/23 07:19:29;;;;;;;20.94;11.51;;;;;;;;;;358203;147;864226;-57
2022/01/23 07:20:30;;;;;;;18.95;10.30;;;;;;;;;;359343;147;864864;-57
2022/01/23 07:21:32;;;;;;;19.88;10.99;;;;;;;;;;359032;148;858229;-54
2022/01/23 07:22:34;;;;;;;16.21;9.99;;;;;;;;;;360777;147;858932;-57
2022/01/23 07:23:36;;;;;;;20.85;10.71;;;;;;;;;;358292;148;866243;-57
2022/01/23 07:24:37;;;;;;;20.01;9.01;;;;;;;;;;352597;150;858459;-57
2022/01/23 07:25:41;;;;;;;14.11;8.57;;;;;;;;;;357263;148;865595;-55
2022/01/23 07:26:42;;;;;;;21.17;10.59;;;;;;;;;;358260;149;866349;-58
2022/01/23 07:27:49;;;;;;;19.31;10.11;;;;;;;;;;351214;150;857666;-57
2022/01/23 07:28:48;;;;;;;21.29;10.68;;;;;;;;;;358603;147;864991;-57
2022/01/23 07:29:50;;;;;;;19.21;9.39;;;;;;;;;;358105;147;863869;-58
2022/01/23 07:31:00;;;;;;;18.43;11.11;;;;;;;;;;358175;147;859265;-56
2022/01/23 07:31:58;;;;;;;15.66;9.63;;;;;;;;;;356698;148;866414;-56
2022/01/23 07:32:59;;;;;;;21.79;10.78;;;;;;;;;;356955;147;857364;-56
2022/01/23 07:34:05;;;;;;;19.03;10.93;;;;;;;;;;359115;147;857316;-59
2022/01/23 07:35:07;;;;;;;18.09;9.96;;;;;;;;;;360068;147;856956;-56
2022/01/23 07:36:09;;;;;;;18.46;10.36;;;;;;;;;;358784;148;857015;-56
2022/01/23 07:37:12;;;;;;;19.85;10.91;;;;;;;;;;359734;147;859299;-56
2022/01/23 07:38:17;;;;;;;21.58;10.78;;;;;;;;;;359120;147;866708;-58
2022/01/23 07:39:19;;;;;;;16.63;10.41;;;;;;;23.70;95.48;112913.77;358646;148;857486;-57
2022/01/23 07:40:21;;;;;;;15.44;8.77;;;;;;;;;;359626;147;856775;-57
2022/01/23 07:41:23;;;;;;;16.17;7.94;;;;;;;;;;357599;148;865297;-57
2022/01/23 07:42:25;;;;;;;15.76;8.79;;;;;;;;;;358755;147;865238;-57
2022/01/23 07:43:26;;;;;;;16.69;8.77;;;;;;;;;;359429;147;864982;-57
2022/01/23 07:44:28;;;;;;;19.96;10.08;;;;;;;;;;359158;147;859769;-57
2022/01/23 07:45:29;;;;;;;15.72;9.33;;;;;;;;;;357508;147;861762;-59
2022/01/23 07:46:31;;;;;;;15.53;8.77;;;;;;;;;;358480;148;864924;-57
2022/01/23 07:47:33;;;;;;;16.49;8.91;;;;;;;;;;359509;147;857209;-59
2022/01/23 07:48:35;;;;;;;18.67;10.41;;;;;;;;;;359772;147;858460;-60
2022/01/23 07:49:36;;;;;;;18.78;10.46;;;;;;;;;;358070;147;865536;-59
2022/01/23 07:50:38;;;;;;;19.38;10.96;;;;;;;;;;358209;147;864836;-60
2022/01/23 07:51:40;;;;;;;18.06;11.52;;;;;;;;;;361162;148;864996;-60
2022/01/23 07:52:41;;;;;;;16.08;8.90;;;;;;;;;;357115;147;865186;-57
2022/01/23 07:53:43;;;;;;;19.10;11.10;;;;;;;;;;358393;147;865005;-60
2022/01/23 07:54:45;;;;;;;19.04;10.41;;;;;;;;;;355550;148;858177;-59
2022/01/23 07:55:46;;;;;;;19.26;10.38;;;;;;;;;;357881;148;857526;-58
2022/01/23 07:56:48;;;;;;;18.13;10.69;;;;;;;;;;357450;148;867809;-58
2022/01/23 07:57:52;;;;;;;20.78;11.32;;;;;;;;;;356435;149;860052;-58
2022/01/23 07:58:53;;;;;;;19.38;10.85;;;;;;;;;;357685;149;866151;-58
2022/01/23 07:59:54;;;;;;;20.63;10.59;;;;;;;;;;357229;148;857224;-58
2022/01/23 08:00:56;;;;;;;17.62;8.76;;;;;;;;;;348950;151;865482;-59
2022/01/23 08:01:57;;;;;;;18.69;10.19;;;;;;;;;;360182;148;859233;-58
2022/01/23 08:02:59;;;;;;;21.52;11.04;;;;;;;;;;357134;147;864380;-58
2022/01/23 08:04:01;;;;;;;17.21;10.39;;;;;;;;;;356792;148;856172;-60
2022/01/23 08:05:03;;;;;;;17.94;10.57;;;;;;;;;;358260;148;864335;-60
2022/01/23 08:06:05;;;;;;;17.63;10.89;;;;;;;;;;358180;147;858905;-61
2022/01/23 08:07:19;;;;;;;19.80;12.04;;;;;;;;;;358480;148;857199;-59
2022/01/23 08:08:13;;;;;;;22.61;11.82;;;;;;;;;;355493;148;863743;-59
2022/01/23 08:09:15;;;;;;;20.99;8.99;;;;;;;;;;356735;148;858989;-58
2022/01/23 08:10:18;;;;;;;18.57;10.44;;;;;;;;;;357293;148;864895;-57
2022/01/23 08:11:22;;;;;;;19.84;11.01;;;;;;;;;;356372;148;856749;-59
2022/01/23 08:12:24;;;;;;;23.06;11.72;;;;;;;;;;358375;148;858649;-59
2022/01/23 08:13:25;;;;;;;21.26;11.21;;;;;;;;;;358301;147;857321;-59
2022/01/23 08:14:27;;;;;;;18.04;10.04;;;;;;;;;;359513;148;858573;-58
2022/01/23 08:15:31;;;;;;;18.74;11.12;;;;;;;;;;358551;148;865005;-58
2022/01/23 08:16:32;;;;;;;19.07;10.68;;;;;;;;;;357934;148;858095;-59
2022/01/23 08:17:34;;;;;;;22.09;11.76;;;;;;;;;;356196;147;866853;-57
2022/01/23 08:18:36;;;;;;;18.83;10.85;;;;;;;;;;358633;147;866070;-57
2022/01/23 08:19:37;;;;;;;23.59;11.06;;;;;;;;;;358989;147;866555;-56
2022/01/23 08:20:39;;;;;;;18.34;10.04;;;;;;;;;;359576;147;864922;-57
2022/01/23 08:21:40;;;;;;;23.39;10.86;;;;;;;;;;359357;147;865175;-57
2022/01/23 08:22:42;;;;;;;19.39;10.63;;;;;;;;;;356295;148;860275;-58